Huvudsida
METAR-TAF:

METAR-TAF

Flygplatser :

Dubai, Förenade Arabemiraten

Dubais internationella flygplats

latitud: 25-15-10N, longitud: 055-21-52E, höjd: 8 m

Aktuellt väderrapport

Denna rapport gjordes för 55 minuter sedan, klockan 08:00 UTC
Vind 15 kt från väst/nordväst
Temperatur 30°C
Fuktighet 62%
Tryck 1011 hPa
Sikt: 6000 m

METAR: OMDB 250800Z 30015KT 6000 NSC 30/22 Q1011 NOSIG

Tid: 12:55 (08:55 UTC)

Väderprognos

Denna rapport gjordes för 3 timmar och 59 minuter sedan, klockan 04:56 UTC
Prognos gäller från 25 kl. 06 UTC till 26 kl. 12 UTC
Vind 5 kt från syd/sydväst
Sikt 10 km eller mer
Inga moln under 1 500 m eller inga cumulonimbus
Blir
från 25 kl. 07 UTC till 25 kl. 09 UTC
Vind 17 kt från nordväst
Blir
från 25 kl. 15 UTC till 25 kl. 17 UTC
Vind 5 kt från sydost
Blir
från 26 kl. 07 UTC till 26 kl. 09 UTC
Vind 13 kt från nordväst

TAF: OMDB 250456Z 2506/2612 20005KT CAVOK BECMG 2507/2509 32017KT BECMG 2515/2517 14005KT BECMG 2607/2609 32013KT

Aktuella väderrapporter och prognoser från 4000 flygplatser (METAR- och TAF-rapporter).

De tillgängliga stationerna syns som gula och röda prickar på kartan.

För musen över prickarna för att se namnen på stationerna.

Klicka sedan för att få väderrapporter och prognoser.

För att ändra kartan: Klicka på de gröna knapparna med ett svart kors på för att zooma in; den gröna knappen med ett streck på för att zooma ut; eller på de gröna pilarna för angränsande kartor.


METAR-TAF: